createdAt,value
2023-07-18T00:03:17.135Z,224016.00
2023-07-18T00:09:19.630Z,223948.00
2023-07-18T00:15:22.473Z,223868.00
2023-07-18T00:21:24.785Z,223814.00
2023-07-18T00:27:27.154Z,223800.00
2023-07-18T00:33:30.381Z,223776.00
2023-07-18T00:39:32.696Z,223717.00
2023-07-18T00:45:35.322Z,223717.00
2023-07-18T00:51:37.720Z,223709.00
2023-07-18T00:57:42.982Z,223657.00
2023-07-18T01:03:45.894Z,223561.00
2023-07-18T01:09:48.950Z,223515.00
2023-07-18T01:15:51.536Z,223515.00
2023-07-18T01:21:54.187Z,223501.00
2023-07-18T01:28:01.046Z,223418.00
2023-07-18T01:34:04.337Z,223299.00
2023-07-18T01:40:09.772Z,223182.00
2023-07-18T01:46:12.775Z,223172.00
2023-07-18T01:52:15.297Z,223137.00
2023-07-18T01:58:17.703Z,223034.00
2023-07-18T02:04:20.520Z,223018.00
2023-07-18T02:10:23.500Z,222983.00
2023-07-18T02:16:25.778Z,222967.00
2023-07-18T02:22:30.363Z,222899.00
2023-07-18T02:28:32.810Z,222834.00
2023-07-18T02:34:35.219Z,222707.00
2023-07-18T02:40:37.540Z,222640.00
2023-07-18T02:46:40.324Z,222610.00
2023-07-18T02:52:43.004Z,222567.00
2023-07-18T02:58:45.397Z,222553.00
2023-07-18T03:04:50.938Z,222575.00
2023-07-18T03:10:53.555Z,222567.00
2023-07-18T03:16:55.974Z,222640.00
2023-07-18T03:22:58.815Z,222721.00
2023-07-18T03:29:01.604Z,222805.00
2023-07-18T03:35:04.528Z,222953.00
2023-07-18T03:41:06.892Z,223086.00
2023-07-18T03:47:20.108Z,223286.00
2023-07-18T03:53:24.295Z,223434.00
2023-07-18T03:59:27.281Z,223561.00
2023-07-18T04:05:29.854Z,223792.00
2023-07-18T04:11:32.839Z,223948.00
2023-07-18T04:17:35.407Z,224113.00
2023-07-18T04:23:37.909Z,224355.00
2023-07-18T04:29:40.432Z,224503.00
2023-07-18T04:35:43.325Z,224662.00
2023-07-18T04:41:55.287Z,224826.00
2023-07-18T04:47:58.396Z,224954.00
2023-07-18T04:54:01.436Z,224998.00
2023-07-18T05:00:10.152Z,225097.00
2023-07-18T05:06:13.016Z,225414.00
2023-07-18T05:12:15.567Z,225730.00
2023-07-18T05:18:19.218Z,225798.00
2023-07-18T05:24:21.759Z,225937.00
2023-07-18T05:30:24.045Z,226019.00
2023-07-18T05:36:27.026Z,226095.00
2023-07-18T05:42:29.283Z,226239.00
2023-07-18T05:48:32.379Z,227424.00
2023-07-18T05:54:36.482Z,229226.00
2023-07-18T06:00:40.872Z,230200.00
2023-07-18T06:06:45.015Z,230781.00
2023-07-18T06:12:47.401Z,231436.00
2023-07-18T06:18:49.823Z,231555.00
2023-07-18T06:24:52.267Z,231468.00
2023-07-18T06:30:58.631Z,231571.00
2023-07-18T06:37:03.853Z,231753.00
2023-07-18T06:43:06.328Z,232286.00
2023-07-18T06:49:08.762Z,231793.00
2023-07-18T06:55:12.573Z,232302.00
2023-07-18T07:01:15.052Z,232168.00
2023-07-18T07:07:17.380Z,232447.00
2023-07-18T07:13:19.753Z,232015.00
2023-07-18T07:19:22.203Z,231959.00
2023-07-18T07:25:28.472Z,232415.00
2023-07-18T07:31:31.104Z,232508.00
2023-07-18T07:37:33.566Z,232910.00
2023-07-18T07:43:35.872Z,233134.00
2023-07-18T07:49:38.329Z,233158.00
2023-07-18T07:55:41.641Z,233366.00
2023-07-18T08:01:44.376Z,233230.00
2023-07-18T08:07:46.809Z,233019.00
2023-07-18T08:13:49.050Z,233566.00
2023-07-18T08:19:51.458Z,233697.00
2023-07-18T08:25:55.023Z,233881.00
2023-07-18T08:31:57.361Z,234031.00
2023-07-18T08:37:59.745Z,233992.00
2023-07-18T08:44:03.919Z,234307.00
2023-07-18T08:50:08.409Z,234349.00
2023-07-18T08:56:11.516Z,234705.00
2023-07-18T09:02:14.023Z,234404.00
2023-07-18T09:08:16.509Z,234488.00
2023-07-18T09:14:32.652Z,234412.00
2023-07-18T09:20:35.300Z,234089.00
2023-07-18T09:26:37.665Z,234115.00
2023-07-18T09:32:40.990Z,234113.00
2023-07-18T09:38:45.379Z,234139.00
2023-07-18T09:44:51.914Z,234147.00
2023-07-18T09:50:57.832Z,233976.00
2023-07-18T09:57:13.820Z,233992.00
2023-07-18T10:03:16.185Z,234065.00
2023-07-18T10:09:19.464Z,233729.00
2023-07-18T10:15:22.343Z,233745.00
2023-07-18T10:21:36.433Z,233863.00
2023-07-18T10:27:41.486Z,233598.00
2023-07-18T10:34:15.635Z,233542.00
2023-07-18T10:40:41.115Z,233487.00
2023-07-18T10:46:43.765Z,233524.00
2023-07-18T10:52:46.638Z,233447.00
2023-07-18T10:58:51.285Z,233261.00
2023-07-18T11:04:55.408Z,232926.00
2023-07-18T11:11:05.584Z,232112.00
2023-07-18T11:17:15.398Z,232088.00
2023-07-18T11:23:18.002Z,231595.00
2023-07-18T11:29:26.852Z,231484.00
2023-07-18T11:35:30.633Z,231407.00
2023-07-18T11:41:37.247Z,231735.00
2023-07-18T11:47:45.618Z,231428.00
2023-07-18T11:53:48.379Z,230648.00
2023-07-18T11:59:51.037Z,231500.00
2023-07-18T12:05:53.263Z,231983.00
2023-07-18T12:11:55.921Z,232136.00
2023-07-18T12:17:58.352Z,232191.00
2023-07-18T12:24:00.782Z,232803.00
2023-07-18T12:30:03.202Z,233027.00
2023-07-18T12:36:06.785Z,233316.00
2023-07-18T12:42:09.172Z,233487.00
2023-07-18T12:48:11.633Z,232829.00
2023-07-18T12:54:13.896Z,233406.00
2023-07-18T13:00:16.748Z,232779.00
2023-07-18T13:06:19.473Z,232350.00
2023-07-18T13:12:22.405Z,232038.00
2023-07-18T13:18:24.782Z,231920.00
2023-07-18T13:24:27.367Z,231619.00
2023-07-18T13:30:30.247Z,231373.00
2023-07-18T13:36:33.654Z,231026.00
2023-07-18T13:42:36.084Z,230789.00
2023-07-18T13:48:39.517Z,230468.00
2023-07-18T13:54:42.092Z,230505.00
2023-07-18T14:00:45.329Z,230388.00
2023-07-18T14:06:47.658Z,230317.00
2023-07-18T14:12:50.411Z,230375.00
2023-07-18T14:18:53.073Z,230311.00
2023-07-18T14:24:55.340Z,230184.00
2023-07-18T14:30:57.932Z,230068.00
2023-07-18T14:37:00.325Z,230129.00
2023-07-18T14:43:07.472Z,230028.00
2023-07-18T14:49:09.706Z,229980.00
2023-07-18T14:55:12.215Z,229747.00
2023-07-18T15:01:15.002Z,229917.00
2023-07-18T15:07:17.737Z,229818.00
2023-07-18T15:13:20.156Z,229842.00
2023-07-18T15:19:22.427Z,229850.00
2023-07-18T15:25:24.891Z,229731.00
2023-07-18T15:31:27.212Z,229630.00
2023-07-18T15:37:29.611Z,229436.00
2023-07-18T15:43:33.226Z,229404.00
2023-07-18T15:49:36.550Z,229293.00
2023-07-18T15:55:38.758Z,229144.00
2023-07-18T16:01:41.241Z,228992.00
2023-07-18T16:07:43.609Z,228944.00
2023-07-18T16:13:47.496Z,228843.00
2023-07-18T16:19:52.036Z,228743.00
2023-07-18T16:25:54.262Z,228651.00
2023-07-18T16:31:56.679Z,228557.00
2023-07-18T16:37:58.960Z,228426.00
2023-07-18T16:44:02.068Z,228378.00
2023-07-18T16:50:04.606Z,228194.00
2023-07-18T16:56:07.037Z,227978.00
2023-07-18T17:02:09.567Z,227823.00
2023-07-18T17:08:12.081Z,227725.00
2023-07-18T17:14:14.481Z,227570.00
2023-07-18T17:20:16.828Z,227424.00
2023-07-18T17:26:22.285Z,227346.00
2023-07-18T17:32:25.055Z,227178.00
2023-07-18T17:38:30.228Z,227004.00
2023-07-18T17:44:33.674Z,226849.00
2023-07-18T17:50:36.129Z,226721.00
2023-07-18T17:56:38.502Z,226627.00
2023-07-18T18:02:41.195Z,226536.00
2023-07-18T18:08:43.582Z,226430.00
2023-07-18T18:14:46.299Z,226408.00
2023-07-18T18:20:48.670Z,226346.00
2023-07-18T18:26:50.905Z,226301.00
2023-07-18T18:32:53.918Z,226210.00
2023-07-18T18:38:56.732Z,226119.00
2023-07-18T18:44:59.010Z,225961.00
2023-07-18T18:51:01.937Z,225883.00
2023-07-18T18:57:04.362Z,225814.00
2023-07-18T19:03:06.933Z,225754.00
2023-07-18T19:09:09.401Z,225618.00
2023-07-18T19:15:11.992Z,225588.00
2023-07-18T19:21:14.226Z,225518.00
2023-07-18T19:27:16.706Z,225548.00
2023-07-18T19:33:19.241Z,225503.00
2023-07-18T19:39:22.414Z,225518.00
2023-07-18T19:45:24.851Z,225518.00
2023-07-18T19:51:27.198Z,225438.00
2023-07-18T19:57:29.557Z,225231.00
2023-07-18T20:03:40.862Z,225097.00
2023-07-18T20:09:50.765Z,225029.00
2023-07-18T20:15:55.134Z,225051.00
2023-07-18T20:21:57.601Z,224998.00
2023-07-18T20:28:01.137Z,224909.00
2023-07-18T20:34:03.481Z,224842.00
2023-07-18T20:40:06.231Z,224788.00
2023-07-18T20:46:09.360Z,224780.00
2023-07-18T20:52:11.784Z,224810.00
2023-07-18T20:58:15.587Z,224780.00
2023-07-18T21:04:18.333Z,224681.00
2023-07-18T21:10:20.883Z,224630.00
2023-07-18T21:16:23.577Z,224562.00
2023-07-18T21:22:26.046Z,224503.00
2023-07-18T21:28:28.651Z,224503.00
2023-07-18T21:34:31.152Z,224435.00
2023-07-18T21:40:33.527Z,224425.00
2023-07-18T21:46:35.905Z,224435.00
2023-07-18T21:52:38.282Z,224425.00
2023-07-18T21:58:40.853Z,224398.00
2023-07-18T22:04:43.319Z,224398.00
2023-07-18T22:10:45.733Z,224369.00
2023-07-18T22:16:49.097Z,224347.00
2023-07-18T22:22:51.403Z,224331.00
2023-07-18T22:28:53.747Z,224285.00
2023-07-18T22:34:56.202Z,224224.00
2023-07-18T22:41:00.133Z,224137.00
2023-07-18T22:47:02.518Z,224060.00
2023-07-18T22:53:06.849Z,223978.00
2023-07-18T22:59:09.256Z,223919.00
2023-07-18T23:05:11.788Z,223911.00
2023-07-18T23:11:14.225Z,223964.00
2023-07-18T23:17:16.666Z,223717.00
2023-07-18T23:23:19.142Z,223665.00
2023-07-18T23:29:21.622Z,223606.00
2023-07-18T23:35:27.157Z,223561.00
2023-07-18T23:41:30.143Z,223555.00
2023-07-18T23:47:32.434Z,223561.00
2023-07-18T23:53:35.040Z,223585.00
2023-07-18T23:59:37.784Z,223577.00
